In Rescue
 
Open Full Screen Window  High Contrast Mode
July 23, 2019 12:34 AM CDT
Weather Information
Wind Direction
  ---
Wind Speed
  00 kt (0 mph)
Wind Gust
  00 kt (0 mph)
Altimeter
30.24 in
Visibility
10 SM
Temperature
18° C
64° F
Dewpoint
14° C
57° F
Humidity
78%
1hr Rain Fall
00.00 in.
24hr Rain Fall
00.00 in.
Sky Condition
Clear
VFR

METAR KJKJ 230534Z AUTO 00000KT 10SM CLR 18/14 A3024 RMK AO2

FAA Disclaimer: The data displayed is for advisory purposes only and is not to be used for flight planning or operations.